sensor_id;sensor_type;location;lat;lon;timestamp;P1;durP1;ratioP1;P2;durP2;ratioP2
23362;SDS011;11853;48.080;11.960;2022-12-18T00:01:30;60.33;;;37.17;;
23362;SDS011;11853;48.080;11.960;2022-12-18T00:04:03;57.85;;;36.45;;
23362;SDS011;11853;48.080;11.960;2022-12-18T00:06:35;61.17;;;36.08;;
23362;SDS011;11853;48.080;11.960;2022-12-18T00:09:01;62.08;;;37.97;;
23362;SDS011;11853;48.080;11.960;2022-12-18T00:11:29;64.30;;;37.70;;
23362;SDS011;11853;48.080;11.960;2022-12-18T00:13:57;63.60;;;35.50;;
23362;SDS011;11853;48.080;11.960;2022-12-18T00:16:27;66.45;;;38.85;;
23362;SDS011;11853;48.080;11.960;2022-12-18T00:18:58;68.05;;;37.08;;
23362;SDS011;11853;48.080;11.960;2022-12-18T00:21:28;64.00;;;37.00;;
23362;SDS011;11853;48.080;11.960;2022-12-18T00:23:57;67.13;;;37.83;;
23362;SDS011;11853;48.080;11.960;2022-12-18T00:26:28;66.45;;;37.22;;
23362;SDS011;11853;48.080;11.960;2022-12-18T00:28:58;62.57;;;36.70;;
23362;SDS011;11853;48.080;11.960;2022-12-18T00:31:24;79.63;;;39.58;;
23362;SDS011;11853;48.080;11.960;2022-12-18T00:33:51;70.25;;;38.55;;
23362;SDS011;11853;48.080;11.960;2022-12-18T00:36:20;69.80;;;39.15;;
23362;SDS011;11853;48.080;11.960;2022-12-18T00:38:54;62.90;;;35.85;;
23362;SDS011;11853;48.080;11.960;2022-12-18T00:41:21;69.53;;;37.35;;
23362;SDS011;11853;48.080;11.960;2022-12-18T00:44:06;65.43;;;38.42;;
23362;SDS011;11853;48.080;11.960;2022-12-18T00:46:34;63.17;;;36.22;;
23362;SDS011;11853;48.080;11.960;2022-12-18T00:48:59;61.20;;;36.58;;
23362;SDS011;11853;48.080;11.960;2022-12-18T00:51:25;67.82;;;38.13;;
23362;SDS011;11853;48.080;11.960;2022-12-18T00:53:51;71.28;;;39.13;;
23362;SDS011;11853;48.080;11.960;2022-12-18T00:56:23;67.75;;;37.28;;
23362;SDS011;11853;48.080;11.960;2022-12-18T00:58:49;67.55;;;37.70;;
23362;SDS011;11853;48.080;11.960;2022-12-18T01:01:15;66.40;;;37.00;;
23362;SDS011;11853;48.080;11.960;2022-12-18T01:03:41;69.90;;;38.88;;
23362;SDS011;11853;48.080;11.960;2022-12-18T01:06:07;78.28;;;39.25;;
23362;SDS011;11853;48.080;11.960;2022-12-18T01:08:35;66.32;;;38.15;;
23362;SDS011;11853;48.080;11.960;2022-12-18T01:11:01;66.78;;;38.55;;
23362;SDS011;11853;48.080;11.960;2022-12-18T01:13:33;61.55;;;37.60;;
23362;SDS011;11853;48.080;11.960;2022-12-18T01:15:58;68.97;;;39.47;;
23362;SDS011;11853;48.080;11.960;2022-12-18T01:18:24;64.63;;;37.90;;
23362;SDS011;11853;48.080;11.960;2022-12-18T01:20:49;66.35;;;37.60;;
23362;SDS011;11853;48.080;11.960;2022-12-18T01:23:15;68.80;;;37.72;;
23362;SDS011;11853;48.080;11.960;2022-12-18T01:25:40;64.43;;;38.20;;
23362;SDS011;11853;48.080;11.960;2022-12-18T01:28:06;70.45;;;38.58;;
23362;SDS011;11853;48.080;11.960;2022-12-18T01:30:32;63.40;;;37.70;;
23362;SDS011;11853;48.080;11.960;2022-12-18T01:32:57;61.88;;;37.20;;
23362;SDS011;11853;48.080;11.960;2022-12-18T01:35:23;62.25;;;35.65;;
23362;SDS011;11853;48.080;11.960;2022-12-18T01:37:48;60.78;;;35.10;;
23362;SDS011;11853;48.080;11.960;2022-12-18T01:40:14;61.75;;;35.25;;
23362;SDS011;11853;48.080;11.960;2022-12-18T01:42:39;58.97;;;34.47;;
23362;SDS011;11853;48.080;11.960;2022-12-18T01:45:06;51.20;;;32.63;;
23362;SDS011;11853;48.080;11.960;2022-12-18T01:47:43;54.70;;;32.78;;
23362;SDS011;11853;48.080;11.960;2022-12-18T01:50:25;54.85;;;32.42;;
23362;SDS011;11853;48.080;11.960;2022-12-18T01:53:05;59.38;;;33.17;;
23362;SDS011;11853;48.080;11.960;2022-12-18T01:55:36;54.85;;;32.97;;
23362;SDS011;11853;48.080;11.960;2022-12-18T01:58:08;50.45;;;30.55;;
23362;SDS011;11853;48.080;11.960;2022-12-18T02:00:33;51.47;;;31.73;;
23362;SDS011;11853;48.080;11.960;2022-12-18T02:02:59;48.03;;;30.55;;
23362;SDS011;11853;48.080;11.960;2022-12-18T02:08:15;49.03;;;30.10;;
23362;SDS011;11853;48.080;11.960;2022-12-18T02:10:51;50.05;;;30.38;;
23362;SDS011;11853;48.080;11.960;2022-12-18T02:16:06;50.83;;;30.52;;
23362;SDS011;11853;48.080;11.960;2022-12-18T02:18:47;50.85;;;31.20;;
23362;SDS011;11853;48.080;11.960;2022-12-18T02:21:31;50.95;;;31.05;;
23362;SDS011;11853;48.080;11.960;2022-12-18T02:26:55;49.53;;;30.42;;
23362;SDS011;11853;48.080;11.960;2022-12-18T02:29:30;59.30;;;30.63;;
23362;SDS011;11853;48.080;11.960;2022-12-18T02:32:02;54.00;;;31.13;;
23362;SDS011;11853;48.080;11.960;2022-12-18T02:34:31;53.03;;;30.88;;
23362;SDS011;11853;48.080;11.960;2022-12-18T02:37:02;51.92;;;29.52;;
23362;SDS011;11853;48.080;11.960;2022-12-18T02:39:32;52.47;;;30.63;;
23362;SDS011;11853;48.080;11.960;2022-12-18T02:41:59;54.85;;;31.83;;
23362;SDS011;11853;48.080;11.960;2022-12-18T02:44:28;54.47;;;31.95;;
23362;SDS011;11853;48.080;11.960;2022-12-18T02:46:54;47.78;;;30.15;;
23362;SDS011;11853;48.080;11.960;2022-12-18T02:55:08;59.63;;;34.17;;
23362;SDS011;11853;48.080;11.960;2022-12-18T03:00:20;54.15;;;31.92;;
23362;SDS011;11853;48.080;11.960;2022-12-18T03:05:41;59.42;;;34.53;;
23362;SDS011;11853;48.080;11.960;2022-12-18T03:08:14;52.45;;;31.67;;
23362;SDS011;11853;48.080;11.960;2022-12-18T03:13:33;52.08;;;31.75;;
23362;SDS011;11853;48.080;11.960;2022-12-18T03:16:06;54.63;;;31.98;;
23362;SDS011;11853;48.080;11.960;2022-12-18T03:21:04;59.35;;;33.03;;
23362;SDS011;11853;48.080;11.960;2022-12-18T03:23:35;55.70;;;31.90;;
23362;SDS011;11853;48.080;11.960;2022-12-18T03:26:14;53.35;;;30.73;;
23362;SDS011;11853;48.080;11.960;2022-12-18T03:28:44;51.90;;;30.33;;
23362;SDS011;11853;48.080;11.960;2022-12-18T03:31:16;51.53;;;29.90;;
23362;SDS011;11853;48.080;11.960;2022-12-18T03:33:55;54.83;;;32.05;;
23362;SDS011;11853;48.080;11.960;2022-12-18T03:36:24;49.97;;;31.13;;
23362;SDS011;11853;48.080;11.960;2022-12-18T03:38:50;61.75;;;31.20;;
23362;SDS011;11853;48.080;11.960;2022-12-18T03:41:18;54.38;;;31.98;;
23362;SDS011;11853;48.080;11.960;2022-12-18T03:43:52;52.78;;;30.88;;
23362;SDS011;11853;48.080;11.960;2022-12-18T03:46:28;58.28;;;32.35;;
23362;SDS011;11853;48.080;11.960;2022-12-18T03:49:05;58.60;;;34.15;;
23362;SDS011;11853;48.080;11.960;2022-12-18T03:51:39;55.05;;;32.22;;
23362;SDS011;11853;48.080;11.960;2022-12-18T03:54:13;60.42;;;34.03;;
23362;SDS011;11853;48.080;11.960;2022-12-18T03:56:41;52.15;;;31.60;;
23362;SDS011;11853;48.080;11.960;2022-12-18T03:59:09;64.97;;;33.95;;
23362;SDS011;11853;48.080;11.960;2022-12-18T04:01:38;57.72;;;34.70;;
23362;SDS011;11853;48.080;11.960;2022-12-18T04:04:08;57.03;;;31.38;;
23362;SDS011;11853;48.080;11.960;2022-12-18T04:06:36;50.88;;;31.35;;
23362;SDS011;11853;48.080;11.960;2022-12-18T04:09:02;47.70;;;29.10;;
23362;SDS011;11853;48.080;11.960;2022-12-18T04:11:30;49.88;;;29.58;;
23362;SDS011;11853;48.080;11.960;2022-12-18T04:13:56;51.42;;;30.05;;
23362;SDS011;11853;48.080;11.960;2022-12-18T04:16:23;49.38;;;30.02;;
23362;SDS011;11853;48.080;11.960;2022-12-18T04:18:50;48.53;;;30.30;;
23362;SDS011;11853;48.080;11.960;2022-12-18T04:21:16;71.10;;;29.90;;
23362;SDS011;11853;48.080;11.960;2022-12-18T04:23:41;44.78;;;26.92;;
23362;SDS011;11853;48.080;11.960;2022-12-18T04:26:07;53.17;;;30.77;;
23362;SDS011;11853;48.080;11.960;2022-12-18T04:28:33;54.30;;;30.33;;
23362;SDS011;11853;48.080;11.960;2022-12-18T04:30:58;49.13;;;27.27;;
23362;SDS011;11853;48.080;11.960;2022-12-18T04:33:24;49.17;;;30.05;;
23362;SDS011;11853;48.080;11.960;2022-12-18T04:35:49;52.35;;;29.63;;
23362;SDS011;11853;48.080;11.960;2022-12-18T04:38:15;52.08;;;30.63;;
23362;SDS011;11853;48.080;11.960;2022-12-18T04:40:41;51.30;;;30.33;;
23362;SDS011;11853;48.080;11.960;2022-12-18T04:43:06;53.78;;;30.55;;
23362;SDS011;11853;48.080;11.960;2022-12-18T04:45:32;51.38;;;30.80;;
23362;SDS011;11853;48.080;11.960;2022-12-18T04:47:59;48.38;;;29.27;;
23362;SDS011;11853;48.080;11.960;2022-12-18T04:50:25;51.90;;;30.73;;
23362;SDS011;11853;48.080;11.960;2022-12-18T04:52:51;54.50;;;31.50;;
23362;SDS011;11853;48.080;11.960;2022-12-18T04:55:17;52.72;;;31.45;;
23362;SDS011;11853;48.080;11.960;2022-12-18T04:57:42;51.50;;;31.35;;
23362;SDS011;11853;48.080;11.960;2022-12-18T05:00:08;53.03;;;31.08;;
23362;SDS011;11853;48.080;11.960;2022-12-18T05:02:34;49.22;;;30.50;;
23362;SDS011;11853;48.080;11.960;2022-12-18T05:05:01;54.63;;;31.33;;
23362;SDS011;11853;48.080;11.960;2022-12-18T05:07:27;50.45;;;30.50;;
23362;SDS011;11853;48.080;11.960;2022-12-18T05:09:54;53.72;;;31.70;;
23362;SDS011;11853;48.080;11.960;2022-12-18T05:12:21;46.78;;;29.38;;
23362;SDS011;11853;48.080;11.960;2022-12-18T05:14:47;48.05;;;30.30;;
23362;SDS011;11853;48.080;11.960;2022-12-18T05:17:12;49.63;;;30.05;;
23362;SDS011;11853;48.080;11.960;2022-12-18T05:19:38;50.63;;;29.83;;
23362;SDS011;11853;48.080;11.960;2022-12-18T05:22:04;54.28;;;30.27;;
23362;SDS011;11853;48.080;11.960;2022-12-18T05:24:30;45.40;;;26.80;;
23362;SDS011;11853;48.080;11.960;2022-12-18T05:26:56;43.25;;;27.20;;
23362;SDS011;11853;48.080;11.960;2022-12-18T05:29:22;41.92;;;26.58;;
23362;SDS011;11853;48.080;11.960;2022-12-18T05:31:47;43.17;;;26.92;;
23362;SDS011;11853;48.080;11.960;2022-12-18T05:34:13;44.60;;;26.60;;
23362;SDS011;11853;48.080;11.960;2022-12-18T05:36:39;44.08;;;27.10;;
23362;SDS011;11853;48.080;11.960;2022-12-18T05:39:04;42.58;;;26.05;;
23362;SDS011;11853;48.080;11.960;2022-12-18T05:41:31;42.58;;;25.80;;
23362;SDS011;11853;48.080;11.960;2022-12-18T05:43:56;43.42;;;24.52;;
23362;SDS011;11853;48.080;11.960;2022-12-18T05:46:23;44.67;;;25.02;;
23362;SDS011;11853;48.080;11.960;2022-12-18T05:48:49;41.05;;;25.25;;
23362;SDS011;11853;48.080;11.960;2022-12-18T05:51:17;41.90;;;24.98;;
23362;SDS011;11853;48.080;11.960;2022-12-18T05:53:45;44.17;;;26.15;;
23362;SDS011;11853;48.080;11.960;2022-12-18T05:56:13;41.88;;;25.20;;
23362;SDS011;11853;48.080;11.960;2022-12-18T05:58:44;44.63;;;26.63;;
23362;SDS011;11853;48.080;11.960;2022-12-18T06:01:12;46.33;;;25.20;;
23362;SDS011;11853;48.080;11.960;2022-12-18T06:03:40;46.58;;;24.85;;
23362;SDS011;11853;48.080;11.960;2022-12-18T06:06:16;43.00;;;24.45;;
23362;SDS011;11853;48.080;11.960;2022-12-18T06:08:47;42.95;;;26.20;;
23362;SDS011;11853;48.080;11.960;2022-12-18T06:11:15;41.25;;;25.77;;
23362;SDS011;11853;48.080;11.960;2022-12-18T06:13:42;47.67;;;23.85;;
23362;SDS011;11853;48.080;11.960;2022-12-18T06:16:08;39.45;;;24.15;;
23362;SDS011;11853;48.080;11.960;2022-12-18T06:18:37;42.33;;;25.23;;
23362;SDS011;11853;48.080;11.960;2022-12-18T06:21:03;43.13;;;25.60;;
23362;SDS011;11853;48.080;11.960;2022-12-18T06:23:29;43.05;;;25.58;;
23362;SDS011;11853;48.080;11.960;2022-12-18T06:25:55;46.72;;;25.67;;
23362;SDS011;11853;48.080;11.960;2022-12-18T06:28:20;42.97;;;25.95;;
23362;SDS011;11853;48.080;11.960;2022-12-18T06:30:47;45.35;;;26.00;;
23362;SDS011;11853;48.080;11.960;2022-12-18T06:33:13;59.42;;;25.60;;
23362;SDS011;11853;48.080;11.960;2022-12-18T06:35:39;41.38;;;24.60;;
23362;SDS011;11853;48.080;11.960;2022-12-18T06:38:05;41.75;;;24.55;;
23362;SDS011;11853;48.080;11.960;2022-12-18T06:40:32;40.40;;;25.40;;
23362;SDS011;11853;48.080;11.960;2022-12-18T06:42:58;45.20;;;25.88;;
23362;SDS011;11853;48.080;11.960;2022-12-18T06:45:24;40.63;;;24.80;;
23362;SDS011;11853;48.080;11.960;2022-12-18T06:47:50;41.40;;;24.67;;
23362;SDS011;11853;48.080;11.960;2022-12-18T06:50:16;40.75;;;24.35;;
23362;SDS011;11853;48.080;11.960;2022-12-18T06:52:42;41.92;;;24.73;;
23362;SDS011;11853;48.080;11.960;2022-12-18T06:55:09;39.08;;;23.45;;
23362;SDS011;11853;48.080;11.960;2022-12-18T06:57:35;39.13;;;24.17;;
23362;SDS011;11853;48.080;11.960;2022-12-18T07:00:03;41.25;;;24.80;;
23362;SDS011;11853;48.080;11.960;2022-12-18T07:02:30;41.55;;;24.55;;
23362;SDS011;11853;48.080;11.960;2022-12-18T07:04:56;43.55;;;25.38;;
23362;SDS011;11853;48.080;11.960;2022-12-18T07:07:22;41.80;;;24.55;;
23362;SDS011;11853;48.080;11.960;2022-12-18T07:09:51;41.97;;;25.48;;
23362;SDS011;11853;48.080;11.960;2022-12-18T07:12:17;45.55;;;26.05;;
23362;SDS011;11853;48.080;11.960;2022-12-18T07:14:43;40.72;;;24.50;;
23362;SDS011;11853;48.080;11.960;2022-12-18T07:17:09;42.35;;;25.05;;
23362;SDS011;11853;48.080;11.960;2022-12-18T07:19:34;45.85;;;26.63;;
23362;SDS011;11853;48.080;11.960;2022-12-18T07:22:00;42.33;;;25.42;;
23362;SDS011;11853;48.080;11.960;2022-12-18T07:24:26;45.10;;;25.38;;
23362;SDS011;11853;48.080;11.960;2022-12-18T07:26:52;42.38;;;24.98;;
23362;SDS011;11853;48.080;11.960;2022-12-18T07:29:17;43.53;;;26.25;;
23362;SDS011;11853;48.080;11.960;2022-12-18T07:31:43;44.65;;;25.35;;
23362;SDS011;11853;48.080;11.960;2022-12-18T07:34:10;41.83;;;25.30;;
23362;SDS011;11853;48.080;11.960;2022-12-18T07:36:37;43.40;;;26.60;;
23362;SDS011;11853;48.080;11.960;2022-12-18T07:39:03;43.08;;;24.50;;
23362;SDS011;11853;48.080;11.960;2022-12-18T07:41:29;42.45;;;24.85;;
23362;SDS011;11853;48.080;11.960;2022-12-18T07:43:55;45.83;;;25.42;;
23362;SDS011;11853;48.080;11.960;2022-12-18T07:46:20;43.42;;;24.73;;
23362;SDS011;11853;48.080;11.960;2022-12-18T07:48:46;46.63;;;26.40;;
23362;SDS011;11853;48.080;11.960;2022-12-18T07:51:12;45.72;;;26.27;;
23362;SDS011;11853;48.080;11.960;2022-12-18T07:53:38;45.80;;;26.20;;
23362;SDS011;11853;48.080;11.960;2022-12-18T07:56:06;45.72;;;25.10;;
23362;SDS011;11853;48.080;11.960;2022-12-18T07:58:36;42.05;;;23.73;;
23362;SDS011;11853;48.080;11.960;2022-12-18T08:01:03;42.92;;;25.05;;
23362;SDS011;11853;48.080;11.960;2022-12-18T08:03:29;41.70;;;24.42;;
23362;SDS011;11853;48.080;11.960;2022-12-18T08:05:59;39.90;;;23.70;;
23362;SDS011;11853;48.080;11.960;2022-12-18T08:08:25;35.88;;;21.52;;
23362;SDS011;11853;48.080;11.960;2022-12-18T08:10:51;34.88;;;21.35;;
23362;SDS011;11853;48.080;11.960;2022-12-18T08:13:17;35.22;;;21.15;;
23362;SDS011;11853;48.080;11.960;2022-12-18T08:15:42;35.25;;;20.10;;
23362;SDS011;11853;48.080;11.960;2022-12-18T08:18:08;35.85;;;21.65;;
23362;SDS011;11853;48.080;11.960;2022-12-18T08:20:34;45.03;;;20.98;;
23362;SDS011;11853;48.080;11.960;2022-12-18T08:22:59;36.08;;;22.25;;
23362;SDS011;11853;48.080;11.960;2022-12-18T08:25:25;37.85;;;22.20;;
23362;SDS011;11853;48.080;11.960;2022-12-18T08:27:51;39.70;;;22.58;;
23362;SDS011;11853;48.080;11.960;2022-12-18T08:30:16;34.78;;;21.95;;
23362;SDS011;11853;48.080;11.960;2022-12-18T08:32:42;45.13;;;24.13;;
23362;SDS011;11853;48.080;11.960;2022-12-18T08:35:08;45.50;;;23.02;;
23362;SDS011;11853;48.080;11.960;2022-12-18T08:37:34;38.53;;;21.33;;
23362;SDS011;11853;48.080;11.960;2022-12-18T08:39:59;39.97;;;22.95;;
23362;SDS011;11853;48.080;11.960;2022-12-18T08:42:25;36.55;;;21.75;;
23362;SDS011;11853;48.080;11.960;2022-12-18T08:45:09;39.45;;;23.52;;
23362;SDS011;11853;48.080;11.960;2022-12-18T08:47:35;36.63;;;22.20;;
23362;SDS011;11853;48.080;11.960;2022-12-18T08:50:01;37.67;;;21.85;;
23362;SDS011;11853;48.080;11.960;2022-12-18T08:52:27;39.08;;;23.17;;
23362;SDS011;11853;48.080;11.960;2022-12-18T08:54:53;39.50;;;23.38;;
23362;SDS011;11853;48.080;11.960;2022-12-18T08:57:19;36.70;;;22.38;;
23362;SDS011;11853;48.080;11.960;2022-12-18T08:59:44;41.55;;;24.75;;
23362;SDS011;11853;48.080;11.960;2022-12-18T09:02:10;37.58;;;23.15;;
23362;SDS011;11853;48.080;11.960;2022-12-18T09:04:36;40.63;;;23.42;;
23362;SDS011;11853;48.080;11.960;2022-12-18T09:07:02;38.92;;;23.40;;
23362;SDS011;11853;48.080;11.960;2022-12-18T09:09:28;37.40;;;22.48;;
23362;SDS011;11853;48.080;11.960;2022-12-18T09:11:53;42.22;;;23.35;;
23362;SDS011;11853;48.080;11.960;2022-12-18T09:14:19;41.13;;;23.65;;
23362;SDS011;11853;48.080;11.960;2022-12-18T09:16:45;41.40;;;24.05;;
23362;SDS011;11853;48.080;11.960;2022-12-18T09:19:10;39.47;;;22.50;;
23362;SDS011;11853;48.080;11.960;2022-12-18T09:21:36;40.50;;;23.05;;
23362;SDS011;11853;48.080;11.960;2022-12-18T09:24:02;41.22;;;23.98;;
23362;SDS011;11853;48.080;11.960;2022-12-18T09:26:29;38.78;;;23.15;;
23362;SDS011;11853;48.080;11.960;2022-12-18T09:28:55;38.58;;;22.75;;
23362;SDS011;11853;48.080;11.960;2022-12-18T09:31:21;40.38;;;22.67;;
23362;SDS011;11853;48.080;11.960;2022-12-18T09:33:48;42.58;;;23.40;;
23362;SDS011;11853;48.080;11.960;2022-12-18T09:36:15;42.33;;;24.33;;
23362;SDS011;11853;48.080;11.960;2022-12-18T09:38:42;39.97;;;23.73;;
23362;SDS011;11853;48.080;11.960;2022-12-18T09:44:09;43.33;;;24.33;;
23362;SDS011;11853;48.080;11.960;2022-12-18T09:46:37;36.58;;;22.52;;
23362;SDS011;11853;48.080;11.960;2022-12-18T09:49:11;47.15;;;27.65;;
23362;SDS011;11853;48.080;11.960;2022-12-18T09:51:44;49.75;;;27.90;;
23362;SDS011;11853;48.080;11.960;2022-12-18T09:54:15;45.05;;;25.85;;
23362;SDS011;11853;48.080;11.960;2022-12-18T09:56:46;38.53;;;22.73;;
23362;SDS011;11853;48.080;11.960;2022-12-18T09:59:23;43.40;;;26.95;;
23362;SDS011;11853;48.080;11.960;2022-12-18T10:01:54;46.65;;;27.77;;
23362;SDS011;11853;48.080;11.960;2022-12-18T10:04:20;42.22;;;25.40;;
23362;SDS011;11853;48.080;11.960;2022-12-18T10:06:54;58.38;;;33.25;;
23362;SDS011;11853;48.080;11.960;2022-12-18T10:09:43;48.55;;;30.70;;
23362;SDS011;11853;48.080;11.960;2022-12-18T10:12:48;42.33;;;24.92;;
23362;SDS011;11853;48.080;11.960;2022-12-18T10:21:00;41.92;;;24.25;;
23362;SDS011;11853;48.080;11.960;2022-12-18T10:26:33;44.28;;;25.08;;
23362;SDS011;11853;48.080;11.960;2022-12-18T10:28:59;45.17;;;24.20;;
23362;SDS011;11853;48.080;11.960;2022-12-18T10:31:26;53.17;;;31.08;;
23362;SDS011;11853;48.080;11.960;2022-12-18T10:33:55;45.85;;;26.75;;
23362;SDS011;11853;48.080;11.960;2022-12-18T10:36:20;43.95;;;27.63;;
23362;SDS011;11853;48.080;11.960;2022-12-18T10:38:48;44.38;;;25.25;;
23362;SDS011;11853;48.080;11.960;2022-12-18T10:43:45;49.20;;;28.35;;
23362;SDS011;11853;48.080;11.960;2022-12-18T10:51:23;41.78;;;25.40;;
23362;SDS011;11853;48.080;11.960;2022-12-18T10:54:31;41.92;;;24.75;;
23362;SDS011;11853;48.080;11.960;2022-12-18T10:56:50;37.95;;;22.52;;
23362;SDS011;11853;48.080;11.960;2022-12-18T10:59:17;39.38;;;22.42;;
23362;SDS011;11853;48.080;11.960;2022-12-18T11:01:53;39.88;;;22.58;;
23362;SDS011;11853;48.080;11.960;2022-12-18T11:04:24;40.70;;;23.80;;
23362;SDS011;11853;48.080;11.960;2022-12-18T11:06:53;40.00;;;24.20;;
23362;SDS011;11853;48.080;11.960;2022-12-18T11:09:20;41.92;;;24.50;;
23362;SDS011;11853;48.080;11.960;2022-12-18T11:11:51;49.33;;;30.02;;
23362;SDS011;11853;48.080;11.960;2022-12-18T11:14:24;46.05;;;27.50;;
23362;SDS011;11853;48.080;11.960;2022-12-18T11:16:53;43.55;;;25.38;;
23362;SDS011;11853;48.080;11.960;2022-12-18T11:19:39;41.72;;;23.60;;
23362;SDS011;11853;48.080;11.960;2022-12-18T11:22:19;41.72;;;26.02;;
23362;SDS011;11853;48.080;11.960;2022-12-18T11:24:59;41.70;;;26.02;;
23362;SDS011;11853;48.080;11.960;2022-12-18T11:30:06;43.17;;;24.45;;
23362;SDS011;11853;48.080;11.960;2022-12-18T11:32:35;45.25;;;26.73;;
23362;SDS011;11853;48.080;11.960;2022-12-18T11:35:12;40.63;;;24.35;;
23362;SDS011;11853;48.080;11.960;2022-12-18T11:37:49;40.55;;;24.85;;
23362;SDS011;11853;48.080;11.960;2022-12-18T11:40:35;38.58;;;24.10;;
23362;SDS011;11853;48.080;11.960;2022-12-18T11:45:55;44.67;;;24.17;;
23362;SDS011;11853;48.080;11.960;2022-12-18T11:48:27;41.25;;;25.42;;
23362;SDS011;11853;48.080;11.960;2022-12-18T11:50:58;42.90;;;24.88;;
23362;SDS011;11853;48.080;11.960;2022-12-18T11:53:29;39.75;;;23.35;;
23362;SDS011;11853;48.080;11.960;2022-12-18T12:01:13;39.92;;;23.98;;
23362;SDS011;11853;48.080;11.960;2022-12-18T12:03:54;42.97;;;25.30;;
23362;SDS011;11853;48.080;11.960;2022-12-18T12:06:47;41.30;;;24.95;;
23362;SDS011;11853;48.080;11.960;2022-12-18T12:12:12;45.33;;;28.70;;
23362;SDS011;11853;48.080;11.960;2022-12-18T12:14:51;38.50;;;24.38;;
23362;SDS011;11853;48.080;11.960;2022-12-18T12:17:30;40.25;;;23.52;;
23362;SDS011;11853;48.080;11.960;2022-12-18T12:39:24;42.83;;;27.45;;
23362;SDS011;11853;48.080;11.960;2022-12-18T12:41:55;45.40;;;29.30;;
23362;SDS011;11853;48.080;11.960;2022-12-18T12:44:48;41.35;;;26.02;;
23362;SDS011;11853;48.080;11.960;2022-12-18T12:47:20;43.45;;;27.48;;
23362;SDS011;11853;48.080;11.960;2022-12-18T12:49:58;45.67;;;27.65;;
23362;SDS011;11853;48.080;11.960;2022-12-18T12:52:37;47.50;;;28.75;;
23362;SDS011;11853;48.080;11.960;2022-12-18T12:55:07;44.03;;;27.13;;
23362;SDS011;11853;48.080;11.960;2022-12-18T13:00:23;43.72;;;26.67;;
23362;SDS011;11853;48.080;11.960;2022-12-18T13:05:40;41.17;;;26.38;;
23362;SDS011;11853;48.080;11.960;2022-12-18T13:08:29;41.13;;;26.35;;
23362;SDS011;11853;48.080;11.960;2022-12-18T13:10:57;39.35;;;25.27;;
23362;SDS011;11853;48.080;11.960;2022-12-18T13:13:52;40.30;;;25.85;;
23362;SDS011;11853;48.080;11.960;2022-12-18T13:16:23;39.20;;;24.65;;
23362;SDS011;11853;48.080;11.960;2022-12-18T13:18:56;38.63;;;25.35;;
23362;SDS011;11853;48.080;11.960;2022-12-18T13:21:30;40.83;;;26.42;;
23362;SDS011;11853;48.080;11.960;2022-12-18T13:24:16;39.85;;;25.75;;
23362;SDS011;11853;48.080;11.960;2022-12-18T13:26:58;38.95;;;24.48;;
23362;SDS011;11853;48.080;11.960;2022-12-18T13:32:22;40.38;;;25.00;;
23362;SDS011;11853;48.080;11.960;2022-12-18T13:37:51;43.17;;;26.70;;
23362;SDS011;11853;48.080;11.960;2022-12-18T13:45:59;41.88;;;25.33;;
23362;SDS011;11853;48.080;11.960;2022-12-18T13:48:31;44.70;;;26.30;;
23362;SDS011;11853;48.080;11.960;2022-12-18T13:53:34;37.10;;;23.20;;
23362;SDS011;11853;48.080;11.960;2022-12-18T13:56:04;40.22;;;25.73;;
23362;SDS011;11853;48.080;11.960;2022-12-18T13:58:30;39.15;;;24.02;;
23362;SDS011;11853;48.080;11.960;2022-12-18T14:00:56;37.13;;;23.58;;
23362;SDS011;11853;48.080;11.960;2022-12-18T14:03:25;37.13;;;23.65;;
23362;SDS011;11853;48.080;11.960;2022-12-18T14:06:00;39.95;;;23.33;;
23362;SDS011;11853;48.080;11.960;2022-12-18T14:08:37;37.20;;;22.15;;
23362;SDS011;11853;48.080;11.960;2022-12-18T14:11:05;36.53;;;24.20;;
23362;SDS011;11853;48.080;11.960;2022-12-18T14:13:36;36.25;;;23.25;;
23362;SDS011;11853;48.080;11.960;2022-12-18T14:16:06;36.28;;;23.33;;
23362;SDS011;11853;48.080;11.960;2022-12-18T14:18:38;38.88;;;23.52;;
23362;SDS011;11853;48.080;11.960;2022-12-18T14:21:20;36.58;;;24.33;;
23362;SDS011;11853;48.080;11.960;2022-12-18T14:26:39;40.30;;;25.27;;
23362;SDS011;11853;48.080;11.960;2022-12-18T14:29:18;39.88;;;25.45;;
23362;SDS011;11853;48.080;11.960;2022-12-18T14:31:46;45.50;;;28.52;;
23362;SDS011;11853;48.080;11.960;2022-12-18T14:34:17;49.15;;;30.17;;
23362;SDS011;11853;48.080;11.960;2022-12-18T14:36:52;46.25;;;28.63;;
23362;SDS011;11853;48.080;11.960;2022-12-18T14:39:20;43.08;;;26.73;;
23362;SDS011;11853;48.080;11.960;2022-12-18T14:41:46;42.55;;;26.02;;
23362;SDS011;11853;48.080;11.960;2022-12-18T14:44:14;42.35;;;25.58;;
23362;SDS011;11853;48.080;11.960;2022-12-18T14:46:43;37.83;;;24.20;;
23362;SDS011;11853;48.080;11.960;2022-12-18T14:49:30;40.03;;;24.73;;
23362;SDS011;11853;48.080;11.960;2022-12-18T14:52:06;41.67;;;25.52;;
23362;SDS011;11853;48.080;11.960;2022-12-18T14:54:45;44.20;;;26.35;;
23362;SDS011;11853;48.080;11.960;2022-12-18T14:59:46;38.72;;;24.95;;
23362;SDS011;11853;48.080;11.960;2022-12-18T15:04:53;37.72;;;25.30;;
23362;SDS011;11853;48.080;11.960;2022-12-18T15:07:26;42.42;;;26.20;;
23362;SDS011;11853;48.080;11.960;2022-12-18T15:20:38;40.97;;;25.40;;
23362;SDS011;11853;48.080;11.960;2022-12-18T15:23:19;40.60;;;26.08;;
23362;SDS011;11853;48.080;11.960;2022-12-18T15:25:55;40.33;;;25.08;;
23362;SDS011;11853;48.080;11.960;2022-12-18T15:28:24;41.70;;;25.80;;
23362;SDS011;11853;48.080;11.960;2022-12-18T15:31:00;44.83;;;26.88;;
23362;SDS011;11853;48.080;11.960;2022-12-18T15:33:33;42.55;;;26.50;;
23362;SDS011;11853;48.080;11.960;2022-12-18T15:38:28;44.75;;;25.55;;
23362;SDS011;11853;48.080;11.960;2022-12-18T15:40:53;43.25;;;26.17;;
23362;SDS011;11853;48.080;11.960;2022-12-18T15:43:22;42.95;;;26.27;;
23362;SDS011;11853;48.080;11.960;2022-12-18T15:45:59;39.35;;;25.30;;
23362;SDS011;11853;48.080;11.960;2022-12-18T15:48:29;41.85;;;26.15;;
23362;SDS011;11853;48.080;11.960;2022-12-18T15:50:56;39.97;;;25.13;;
23362;SDS011;11853;48.080;11.960;2022-12-18T15:53:24;42.92;;;26.40;;
23362;SDS011;11853;48.080;11.960;2022-12-18T15:55:53;46.55;;;28.35;;
23362;SDS011;11853;48.080;11.960;2022-12-18T15:58:37;43.63;;;25.85;;
23362;SDS011;11853;48.080;11.960;2022-12-18T16:01:02;43.10;;;27.23;;
23362;SDS011;11853;48.080;11.960;2022-12-18T16:03:28;44.40;;;26.77;;
23362;SDS011;11853;48.080;11.960;2022-12-18T16:05:54;45.92;;;27.02;;
23362;SDS011;11853;48.080;11.960;2022-12-18T16:08:20;44.88;;;27.25;;
23362;SDS011;11853;48.080;11.960;2022-12-18T16:10:45;44.65;;;26.95;;
23362;SDS011;11853;48.080;11.960;2022-12-18T16:13:12;41.33;;;24.98;;
23362;SDS011;11853;48.080;11.960;2022-12-18T16:15:40;44.80;;;26.90;;
23362;SDS011;11853;48.080;11.960;2022-12-18T16:18:06;44.70;;;25.90;;
23362;SDS011;11853;48.080;11.960;2022-12-18T16:20:31;44.28;;;27.83;;